Time;durP1;ratioP1;P1;durP2;ratioP2;P2;SDS_P1;SDS_P2;PMS_P1;PMS_P2;Temp;Humidity;BMP_temperature;BMP_pressure;BME280_temperature;BME280_humidity;BME280_pressure;Samples;Min_cycle;Max_cycle;Signal;HPM_P1;HPM_P2
2023/07/01 00:00:57;;;;;;;5.88;5.38;;;20.10;99.90;;;;;;5025561;28;20479;-75
2023/07/01 00:03:23;;;;;;;6.57;6.07;;;20.10;99.90;;;;;;5026110;28;20022;-75
2023/07/01 00:05:50;;;;;;;6.13;5.60;;;20.20;99.90;;;;;;5016493;28;20033;-75
2023/07/01 00:08:16;;;;;;;6.68;6.13;;;20.10;99.90;;;;;;5029470;28;20589;-75
2023/07/01 00:10:42;;;;;;;7.20;6.53;;;20.20;99.90;;;;;;5011034;28;20040;-75
2023/07/01 00:13:08;;;;;;;6.53;6.03;;;20.20;99.90;;;;;;5016410;28;20034;-76
2023/07/01 00:15:34;;;;;;;8.32;7.53;;;20.20;99.90;;;;;;5018314;28;20037;-75
2023/07/01 00:18:00;;;;;;;7.05;6.55;;;20.20;99.90;;;;;;5034122;28;20052;-75
2023/07/01 00:20:26;;;;;;;8.18;7.47;;;20.20;99.90;;;;;;5033000;28;20029;-75
2023/07/01 00:22:53;;;;;;;8.32;7.63;;;20.20;99.90;;;;;;5016254;28;20030;-75
2023/07/01 00:25:19;;;;;;;8.82;8.00;;;20.10;99.90;;;;;;5014881;28;20041;-75
2023/07/01 00:27:45;;;;;;;8.27;7.55;;;20.10;99.90;;;;;;5016351;28;20030;-74
2023/07/01 00:30:11;;;;;;;8.00;6.97;;;20.20;99.90;;;;;;5015287;28;20030;-76
2023/07/01 00:32:37;;;;;;;8.40;7.60;;;20.10;99.90;;;;;;5018843;28;20018;-75
2023/07/01 00:35:04;;;;;;;9.90;8.82;;;20.10;99.90;;;;;;5035804;28;20025;-75
2023/07/01 00:37:30;;;;;;;9.10;8.40;;;20.10;99.90;;;;;;5015881;28;20509;-75
2023/07/01 00:39:56;;;;;;;8.35;7.57;;;20.10;99.90;;;;;;5015840;28;20038;-75
2023/07/01 00:42:22;;;;;;;8.07;7.28;;;20.10;99.90;;;;;;5015619;28;20467;-75
2023/07/01 00:44:49;;;;;;;9.48;7.55;;;20.00;99.90;;;;;;5015524;28;20041;-75
2023/07/01 00:47:15;;;;;;;8.90;8.00;;;19.90;99.90;;;;;;5015004;28;20038;-74
2023/07/01 00:49:41;;;;;;;11.40;8.52;;;19.90;99.90;;;;;;5015667;28;20045;-76
2023/07/01 00:52:07;;;;;;;8.75;7.78;;;19.90;99.90;;;;;;5014383;28;20037;-74
2023/07/01 00:54:34;;;;;;;9.13;8.23;;;19.90;99.90;;;;;;5014363;28;20022;-75
2023/07/01 00:57:03;;;;;;;10.73;8.15;;;20.00;99.90;;;;;;5015397;28;20041;-75
2023/07/01 00:59:33;;;;;;;11.32;8.57;;;20.00;99.90;;;;;;5014110;28;20419;-74
2023/07/01 01:02:02;;;;;;;12.18;8.80;;;19.90;99.90;;;;;;5015124;28;20034;-74
2023/07/01 01:04:45;;;;;;;11.32;9.63;;;19.90;99.90;;;;;;5014308;28;20033;-74
2023/07/01 01:07:22;;;;;;;13.73;11.02;;;19.90;99.90;;;;;;5020314;28;20037;-75
2023/07/01 01:09:51;;;;;;;14.43;10.40;;;19.80;99.90;;;;;;5034024;28;20025;-75
2023/07/01 01:12:17;;;;;;;17.17;11.38;;;19.80;99.90;;;;;;5015642;28;20041;-74
2023/07/01 01:14:43;;;;;;;13.60;11.15;;;19.70;99.90;;;;;;5013405;28;20026;-74
2023/07/01 01:17:14;;;;;;;12.77;10.38;;;19.70;99.90;;;;;;5013471;28;20041;-74
2023/07/01 01:19:47;;;;;;;14.63;10.63;;;19.80;99.90;;;;;;5014106;28;20030;-75
2023/07/01 01:22:31;;;;;;;15.18;11.25;;;19.80;99.90;;;;;;5013700;28;20070;-75
2023/07/01 01:24:58;;;;;;;16.05;10.70;;;19.90;99.90;;;;;;5013863;28;20026;-75
2023/07/01 01:27:28;;;;;;;16.48;10.50;;;19.90;99.90;;;;;;5013138;28;20037;-74
2023/07/01 01:29:55;;;;;;;17.10;11.52;;;19.90;99.90;;;;;;5013670;28;20494;-75
2023/07/01 01:32:21;;;;;;;13.45;10.45;;;19.80;99.90;;;;;;5014297;28;20037;-76
2023/07/01 01:34:47;;;;;;;16.23;11.27;;;19.80;99.90;;;;;;5014743;28;20059;-74
2023/07/01 01:37:19;;;;;;;17.42;11.70;;;19.80;99.90;;;;;;5014907;28;20038;-75
2023/07/01 01:39:47;;;;;;;15.85;11.70;;;19.90;99.90;;;;;;5014818;28;20040;-75
2023/07/01 01:42:26;;;;;;;21.17;11.30;;;19.90;99.90;;;;;;5045978;28;20053;-74
2023/07/01 01:44:53;;;;;;;16.80;11.13;;;19.80;99.90;;;;;;5014699;28;20034;-74
2023/07/01 01:47:23;;;;;;;18.42;10.90;;;19.80;99.90;;;;;;5026762;28;20039;-74
2023/07/01 01:49:54;;;;;;;16.50;11.75;;;19.80;99.90;;;;;;5014503;28;20046;-75
2023/07/01 01:52:20;;;;;;;20.13;10.75;;;19.80;99.90;;;;;;5013561;28;20463;-75
2023/07/01 01:54:47;;;;;;;16.10;10.13;;;19.80;99.90;;;;;;5012865;28;20100;-75
2023/07/01 01:57:14;;;;;;;19.25;10.30;;;19.80;99.90;;;;;;5012542;28;20041;-74
2023/07/01 01:59:43;;;;;;;16.58;11.07;;;19.90;99.90;;;;;;5012712;28;20426;-74
2023/07/01 02:02:09;;;;;;;18.98;10.00;;;20.00;99.90;;;;;;5005543;28;20041;-74
2023/07/01 02:04:35;;;;;;;13.57;10.82;;;19.90;99.90;;;;;;5005034;28;20038;-75
2023/07/01 02:07:01;;;;;;;16.73;10.88;;;19.90;99.90;;;;;;5017647;28;20041;-75
2023/07/01 02:09:28;;;;;;;17.17;10.75;;;19.90;99.90;;;;;;5024864;28;20037;-75
2023/07/01 02:11:55;;;;;;;15.10;10.18;;;19.90;99.90;;;;;;5012354;28;20391;-75
2023/07/01 02:14:21;;;;;;;15.77;9.85;;;19.90;99.90;;;;;;5012865;28;20075;-75
2023/07/01 02:16:52;;;;;;;14.68;10.20;;;19.90;99.90;;;;;;5012009;28;20034;-74
2023/07/01 02:19:18;;;;;;;15.68;10.27;;;19.90;99.90;;;;;;5012799;28;20109;-76
2023/07/01 02:21:44;;;;;;;13.77;9.40;;;19.90;99.90;;;;;;5012327;28;20041;-76
2023/07/01 02:24:10;;;;;;;17.52;10.27;;;19.90;99.90;;;;;;5012558;28;20030;-75
2023/07/01 02:26:36;;;;;;;14.23;9.98;;;19.90;99.90;;;;;;5010941;28;20037;-74
2023/07/01 02:29:02;;;;;;;13.52;9.77;;;20.00;99.90;;;;;;5011585;28;20046;-75
2023/07/01 02:31:28;;;;;;;14.18;9.55;;;19.90;99.90;;;;;;5011743;28;20041;-74
2023/07/01 02:34:00;;;;;;;11.57;8.60;;;19.90;99.90;;;;;;5012327;28;20037;-74
2023/07/01 02:36:26;;;;;;;13.55;9.30;;;19.80;99.90;;;;;;5012447;28;20026;-74
2023/07/01 02:38:52;;;;;;;12.57;9.60;;;19.80;99.90;;;;;;5013739;28;20046;-74
2023/07/01 02:41:18;;;;;;;16.75;9.50;;;19.80;99.90;;;;;;5013210;28;20033;-75
2023/07/01 02:43:44;;;;;;;16.15;9.77;;;19.90;99.90;;;;;;5013638;28;20045;-75
2023/07/01 02:46:10;;;;;;;18.38;10.10;;;19.90;99.90;;;;;;5012856;28;20038;-74
2023/07/01 02:48:37;;;;;;;15.48;10.05;;;19.90;99.90;;;;;;5013427;28;20037;-73
2023/07/01 02:51:03;;;;;;;13.02;9.82;;;19.80;99.90;;;;;;5013660;28;20409;-74
2023/07/01 02:53:29;;;;;;;15.25;9.90;;;19.90;99.90;;;;;;5012365;28;20041;-74
2023/07/01 02:55:55;;;;;;;13.43;10.40;;;19.80;99.90;;;;;;5012699;28;20482;-76
2023/07/01 02:58:22;;;;;;;14.60;10.25;;;19.80;99.90;;;;;;5012161;28;20057;-74
2023/07/01 03:00:48;;;;;;;13.55;10.00;;;19.90;99.90;;;;;;5013017;28;20109;-75
2023/07/01 03:03:14;;;;;;;12.82;9.88;;;19.80;99.90;;;;;;5013187;28;20021;-75
2023/07/01 03:05:40;;;;;;;14.98;9.25;;;19.90;99.90;;;;;;5013134;28;20038;-75
2023/07/01 03:08:06;;;;;;;11.55;10.02;;;19.90;99.90;;;;;;5027193;28;20036;-75
2023/07/01 03:10:33;;;;;;;13.48;10.38;;;19.90;99.90;;;;;;5027748;28;20038;-74
2023/07/01 03:12:59;;;;;;;11.90;10.02;;;19.90;99.90;;;;;;5013303;28;20382;-74
2023/07/01 03:15:25;;;;;;;15.23;10.00;;;20.00;99.90;;;;;;5012601;28;20034;-74
2023/07/01 03:17:52;;;;;;;11.82;9.70;;;20.10;99.90;;;;;;5012876;28;20471;-74
2023/07/01 03:20:24;;;;;;;11.23;9.73;;;20.00;99.90;;;;;;5012875;28;20050;-75
2023/07/01 03:22:50;;;;;;;13.93;9.88;;;20.10;99.90;;;;;;5012617;28;20030;-75
2023/07/01 03:25:17;;;;;;;9.52;8.55;;;20.20;99.90;;;;;;5012689;28;20033;-74
2023/07/01 03:27:43;;;;;;;13.98;9.73;;;20.10;99.90;;;;;;5011755;28;20042;-74
2023/07/01 03:30:15;;;;;;;9.32;8.20;;;20.10;99.90;;;;;;5012130;28;20041;-74
2023/07/01 03:32:42;;;;;;;10.60;7.60;;;20.10;99.90;;;;;;5012736;28;20022;-74
2023/07/01 03:35:09;;;;;;;9.55;8.57;;;20.10;99.90;;;;;;5012481;28;20033;-75
2023/07/01 03:37:38;;;;;;;9.20;8.25;;;20.10;99.90;;;;;;5010962;28;20399;-75
2023/07/01 03:40:10;;;;;;;8.38;7.13;;;20.10;99.90;;;;;;5013388;28;20042;-75
2023/07/01 03:42:37;;;;;;;9.15;8.10;;;20.10;99.90;;;;;;5012908;28;20056;-75
2023/07/01 03:45:07;;;;;;;9.73;8.32;;;20.10;99.90;;;;;;5012226;28;20041;-74
2023/07/01 03:47:37;;;;;;;8.88;7.88;;;20.00;99.90;;;;;;5012672;28;20050;-74
2023/07/01 03:50:04;;;;;;;9.35;7.22;;;20.00;99.90;;;;;;5012492;28;20054;-75
2023/07/01 03:52:30;;;;;;;7.22;6.57;;;20.00;99.90;;;;;;5012365;28;20022;-74
2023/07/01 03:54:56;;;;;;;11.73;8.05;;;20.00;99.90;;;;;;5012839;28;20041;-74
2023/07/01 03:57:23;;;;;;;8.73;6.47;;;19.90;99.90;;;;;;5012178;28;20045;-74
2023/07/01 03:59:49;;;;;;;7.93;7.13;;;19.90;99.90;;;;;;5012607;28;20049;-74
2023/07/01 04:02:15;;;;;;;9.40;8.05;;;19.90;99.90;;;;;;5011933;28;20495;-74
2023/07/01 04:04:42;;;;;;;9.52;7.35;;;19.90;99.90;;;;;;5012423;28;20034;-75
2023/07/01 04:07:08;;;;;;;10.27;7.57;;;19.80;99.90;;;;;;5018045;28;20037;-74
2023/07/01 04:09:34;;;;;;;7.28;6.18;;;19.80;99.90;;;;;;5032110;28;20363;-75
2023/07/01 04:12:00;;;;;;;8.23;7.10;;;19.80;99.90;;;;;;5016981;28;20034;-74
2023/07/01 04:14:26;;;;;;;8.35;6.88;;;19.90;99.90;;;;;;5012848;28;20042;-75
2023/07/01 04:16:52;;;;;;;8.85;6.53;;;19.90;99.90;;;;;;5011659;28;20053;-74
2023/07/01 04:19:18;;;;;;;9.57;6.68;;;19.90;99.90;;;;;;5012248;28;20042;-75
2023/07/01 04:21:44;;;;;;;10.10;6.80;;;19.90;99.90;;;;;;5011887;28;20041;-74
2023/07/01 04:24:10;;;;;;;7.20;6.50;;;19.90;99.90;;;;;;5012502;28;20041;-74
2023/07/01 04:26:36;;;;;;;7.57;6.72;;;19.90;99.90;;;;;;5011852;28;20030;-74
2023/07/01 04:29:03;;;;;;;8.98;6.15;;;19.90;99.90;;;;;;5012300;28;20060;-74
2023/07/01 04:31:29;;;;;;;7.28;5.80;;;19.90;99.90;;;;;;5010314;28;20507;-74
2023/07/01 04:33:55;;;;;;;6.95;5.75;;;19.90;99.90;;;;;;5011076;28;20034;-74
2023/07/01 04:36:22;;;;;;;13.10;5.88;;;19.80;99.90;;;;;;5011528;28;20042;-74
2023/07/01 04:38:48;;;;;;;9.50;5.57;;;19.80;99.90;;;;;;5012111;28;20026;-74
2023/07/01 04:41:14;;;;;;;11.20;5.63;;;19.80;99.90;;;;;;5012967;28;20053;-74
2023/07/01 04:43:40;;;;;;;7.18;5.38;;;19.70;99.90;;;;;;5012250;28;20034;-75
2023/07/01 04:46:06;;;;;;;9.70;5.70;;;19.60;99.90;;;;;;5011453;28;20037;-74
2023/07/01 04:48:32;;;;;;;10.82;5.78;;;19.70;99.90;;;;;;5012125;28;20030;-74
2023/07/01 04:50:58;;;;;;;8.57;5.80;;;19.60;99.90;;;;;;5014305;28;20093;-74
2023/07/01 04:53:24;;;;;;;8.10;6.05;;;19.70;99.90;;;;;;5015546;28;20029;-74
2023/07/01 04:55:50;;;;;;;10.30;6.13;;;19.70;99.90;;;;;;5015500;28;20029;-74
2023/07/01 04:58:17;;;;;;;12.18;6.10;;;19.60;99.90;;;;;;5015510;28;20038;-74
2023/07/01 05:00:43;;;;;;;8.90;5.80;;;19.60;99.90;;;;;;5015350;28;20062;-74
2023/07/01 05:03:09;;;;;;;9.95;6.18;;;19.70;99.90;;;;;;5015396;28;20022;-74
2023/07/01 05:05:35;;;;;;;9.43;5.57;;;19.70;99.90;;;;;;5013806;28;20722;-74
2023/07/01 05:08:02;;;;;;;10.93;6.22;;;19.60;99.90;;;;;;5028679;28;20036;-74
2023/07/01 05:10:28;;;;;;;9.38;6.03;;;19.60;99.90;;;;;;5032619;28;20037;-75
2023/07/01 05:12:54;;;;;;;8.85;5.28;;;19.70;99.90;;;;;;5015407;28;20030;-74
2023/07/01 05:15:20;;;;;;;7.75;5.50;;;19.60;99.90;;;;;;5014581;28;20030;-74
2023/07/01 05:17:46;;;;;;;8.32;5.22;;;19.60;99.90;;;;;;5015286;28;20030;-74
2023/07/01 05:20:12;;;;;;;6.55;5.15;;;19.60;99.90;;;;;;5014690;28;20041;-74
2023/07/01 05:22:38;;;;;;;6.85;4.75;;;19.70;99.90;;;;;;5015132;28;20033;-74
2023/07/01 05:25:05;;;;;;;6.60;4.95;;;19.60;99.90;;;;;;5015233;28;20030;-74
2023/07/01 05:27:31;;;;;;;5.28;4.72;;;19.60;99.90;;;;;;5014736;28;20034;-74
2023/07/01 05:29:57;;;;;;;4.97;4.55;;;19.70;99.90;;;;;;5013859;28;20033;-74
2023/07/01 05:32:23;;;;;;;5.10;4.57;;;19.70;99.90;;;;;;5014419;28;20487;-74
2023/07/01 05:34:50;;;;;;;7.93;4.65;;;19.70;99.90;;;;;;5014537;28;20025;-74
2023/07/01 05:37:16;;;;;;;5.88;4.65;;;19.80;99.90;;;;;;5014538;28;20034;-74
2023/07/01 05:39:42;;;;;;;6.50;4.32;;;19.80;99.90;;;;;;5046517;28;20037;-74
2023/07/01 05:42:08;;;;;;;5.60;4.63;;;19.90;99.90;;;;;;5014586;28;20026;-74
2023/07/01 05:44:34;;;;;;;6.05;4.10;;;19.80;99.90;;;;;;5014741;28;20037;-75
2023/07/01 05:47:00;;;;;;;5.25;4.03;;;19.80;99.90;;;;;;5013911;28;20034;-75
2023/07/01 05:49:26;;;;;;;6.30;4.82;;;19.80;99.90;;;;;;5014007;28;20038;-75
2023/07/01 05:51:52;;;;;;;5.43;4.40;;;19.80;99.90;;;;;;5014427;28;20044;-74
2023/07/01 05:54:18;;;;;;;4.82;4.25;;;19.80;99.90;;;;;;5014551;28;20057;-74
2023/07/01 05:56:45;;;;;;;7.80;4.60;;;19.80;99.90;;;;;;5014168;28;20030;-74
2023/07/01 05:59:13;;;;;;;9.10;4.60;;;19.70;99.90;;;;;;5014365;28;20042;-74
2023/07/01 06:01:39;;;;;;;5.13;4.53;;;19.70;99.90;;;;;;5013525;28;20045;-74
2023/07/01 06:04:05;;;;;;;5.60;4.05;;;19.70;99.90;;;;;;5013884;28;20041;-74
2023/07/01 06:06:31;;;;;;;7.40;4.57;;;19.60;99.90;;;;;;5015208;28;20038;-74
2023/07/01 06:08:57;;;;;;;5.72;4.70;;;19.60;99.90;;;;;;5034058;28;20115;-75
2023/07/01 06:11:23;;;;;;;6.28;5.00;;;19.60;99.90;;;;;;5023469;28;20471;-75
2023/07/01 06:13:49;;;;;;;4.93;4.28;;;19.60;99.90;;;;;;5014247;28;20036;-74
2023/07/01 06:16:16;;;;;;;6.22;4.05;;;19.70;99.90;;;;;;5013435;28;20491;-74
2023/07/01 06:18:42;;;;;;;6.65;4.38;;;19.70;99.90;;;;;;5013611;28;20045;-74
2023/07/01 06:21:08;;;;;;;5.68;4.07;;;19.60;99.90;;;;;;5012724;28;20026;-74
2023/07/01 06:23:38;;;;;;;6.85;4.47;;;19.60;99.90;;;;;;5012770;28;20399;-75
2023/07/01 06:26:04;;;;;;;7.40;4.32;;;19.60;99.90;;;;;;5013835;28;20407;-74
2023/07/01 06:28:30;;;;;;;4.88;4.38;;;19.70;99.90;;;;;;5013900;28;20041;-74
2023/07/01 06:30:56;;;;;;;5.93;4.63;;;19.70;99.90;;;;;;5013085;28;20034;-75
2023/07/01 06:33:22;;;;;;;6.15;4.63;;;19.70;99.90;;;;;;5013381;28;20391;-74
2023/07/01 06:35:48;;;;;;;6.00;5.28;;;19.70;99.90;;;;;;5013328;28;20026;-74
2023/07/01 06:38:14;;;;;;;7.72;5.20;;;19.80;99.90;;;;;;5013603;28;20036;-74
2023/07/01 06:40:41;;;;;;;7.43;5.22;;;19.80;99.90;;;;;;5013474;28;20049;-74
2023/07/01 06:43:07;;;;;;;6.30;4.57;;;19.80;99.90;;;;;;5012537;28;20022;-74
2023/07/01 06:45:33;;;;;;;5.38;4.72;;;19.90;99.90;;;;;;5008584;28;20034;-74
2023/07/01 06:47:59;;;;;;;7.45;5.25;;;19.80;99.90;;;;;;4993559;28;20030;-75
2023/07/01 06:50:25;;;;;;;7.53;4.95;;;19.80;99.90;;;;;;4993484;28;20061;-74
2023/07/01 06:52:51;;;;;;;7.93;4.63;;;19.80;99.90;;;;;;5008994;28;20042;-74
2023/07/01 06:55:18;;;;;;;5.65;4.88;;;19.80;99.90;;;;;;4993486;28;20045;-74
2023/07/01 06:57:44;;;;;;;7.30;5.22;;;19.90;99.90;;;;;;4993747;28;20030;-74
2023/07/01 07:00:13;;;;;;;5.35;4.85;;;19.90;99.90;;;;;;4992989;28;20042;-75
2023/07/01 07:02:39;;;;;;;6.95;5.13;;;20.00;99.90;;;;;;4974139;28;20042;-74
2023/07/01 07:05:06;;;;;;;6.47;4.70;;;20.00;99.90;;;;;;4974368;28;20030;-74
2023/07/01 07:07:32;;;;;;;5.38;4.88;;;20.10;99.90;;;;;;4992736;28;20042;-74
2023/07/01 07:09:58;;;;;;;5.82;5.18;;;20.20;99.90;;;;;;4993947;28;20046;-74
2023/07/01 07:12:25;;;;;;;5.53;5.03;;;20.30;99.90;;;;;;4993002;28;20038;-74
2023/07/01 07:14:52;;;;;;;7.57;6.75;;;20.40;99.90;;;;;;4993105;28;20080;-74
2023/07/01 07:17:18;;;;;;;13.68;12.52;;;20.60;99.90;;;;;;4992426;28;20483;-74
2023/07/01 07:19:44;;;;;;;30.63;28.85;;;20.70;99.90;;;;;;4993592;28;20376;-75
2023/07/01 07:22:10;;;;;;;27.10;25.60;;;21.00;99.90;;;;;;4992976;28;20033;-75
2023/07/01 07:24:36;;;;;;;15.32;14.32;;;21.00;99.90;;;;;;4993182;28;20034;-75
2023/07/01 07:27:02;;;;;;;10.80;10.00;;;21.00;99.90;;;;;;4993174;28;20046;-74
2023/07/01 07:29:29;;;;;;;9.50;8.70;;;21.00;99.90;;;;;;4992807;28;20468;-74
2023/07/01 07:31:56;;;;;;;7.55;6.80;;;21.00;99.90;;;;;;4992752;28;20042;-74
2023/07/01 07:34:22;;;;;;;9.13;8.40;;;20.80;99.90;;;;;;4994000;28;20061;-74
2023/07/01 07:36:48;;;;;;;8.65;6.82;;;20.80;99.90;;;;;;4992661;28;20106;-74
2023/07/01 07:39:15;;;;;;;8.35;6.18;;;20.70;99.90;;;;;;4992993;28;20033;-74
2023/07/01 07:41:41;;;;;;;7.63;6.93;;;20.70;99.90;;;;;;4998898;28;20482;-74
2023/07/01 07:44:07;;;;;;;7.63;5.88;;;20.70;99.90;;;;;;4992904;28;20030;-73
2023/07/01 07:46:34;;;;;;;7.07;6.47;;;20.70;99.90;;;;;;4992219;28;20045;-74
2023/07/01 07:49:00;;;;;;;8.48;6.40;;;20.70;99.90;;;;;;4992865;28;20054;-74
2023/07/01 07:51:26;;;;;;;14.30;13.50;;;20.70;99.90;;;;;;4992654;28;20035;-74
2023/07/01 07:53:52;;;;;;;17.38;16.17;;;20.80;99.90;;;;;;4992996;28;20037;-73
2023/07/01 07:56:19;;;;;;;17.25;16.33;;;21.00;99.90;;;;;;5007816;28;20033;-74
2023/07/01 07:58:45;;;;;;;17.90;16.35;;;21.10;99.90;;;;;;4992680;28;20042;-75
2023/07/01 08:01:11;;;;;;;9.82;9.10;;;21.20;99.90;;;;;;4992278;28;20047;-74
2023/07/01 08:03:39;;;;;;;14.20;13.10;;;21.20;99.90;;;;;;4992891;28;20023;-75
2023/07/01 08:06:05;;;;;;;29.75;28.20;;;20.90;99.90;;;;;;4992380;28;20038;-74
2023/07/01 08:08:31;;;;;;;18.73;17.52;;;20.50;99.90;;;;;;4992929;28;20042;-74
2023/07/01 08:10:58;;;;;;;9.35;8.43;;;20.20;99.90;;;;;;4992557;28;20037;-74
2023/07/01 08:13:24;;;;;;;8.88;8.18;;;20.10;99.90;;;;;;4992332;28;20041;-74
2023/07/01 08:15:50;;;;;;;6.93;6.35;;;20.10;99.90;;;;;;5007097;28;20042;-73
2023/07/01 08:18:17;;;;;;;7.55;6.95;;;20.10;99.90;;;;;;4992946;28;20392;-74
2023/07/01 08:20:44;;;;;;;8.15;7.53;;;20.20;99.90;;;;;;4992304;28;20050;-74
2023/07/01 08:23:10;;;;;;;8.80;8.02;;;20.30;99.90;;;;;;4992857;28;20038;-75
2023/07/01 08:25:42;;;;;;;10.18;9.43;;;20.40;99.90;;;;;;4994753;28;20045;-74
2023/07/01 08:28:08;;;;;;;19.10;18.00;;;20.70;99.90;;;;;;4996263;28;20041;-74
2023/07/01 08:30:34;;;;;;;29.23;27.48;;;20.90;99.90;;;;;;4995881;28;20038;-74
2023/07/01 08:33:00;;;;;;;31.27;29.50;;;21.10;99.90;;;;;;4996371;28;20033;-74
2023/07/01 08:35:26;;;;;;;26.08;24.58;;;21.20;99.90;;;;;;4996072;28;20391;-74
2023/07/01 08:37:52;;;;;;;33.58;31.55;;;21.20;99.90;;;;;;4996496;28;20030;-75
2023/07/01 08:40:18;;;;;;;38.42;36.17;;;21.30;99.90;;;;;;4996147;28;20456;-74
2023/07/01 08:42:48;;;;;;;29.98;28.17;;;21.30;99.90;;;;;;4995926;28;20034;-74
2023/07/01 08:45:14;;;;;;;32.10;30.00;;;21.30;99.90;;;;;;5010533;28;20041;-75
2023/07/01 08:47:41;;;;;;;34.35;32.33;;;21.30;99.90;;;;;;4996179;28;20038;-75
2023/07/01 08:50:08;;;;;;;35.78;33.47;;;21.30;99.90;;;;;;4995904;28;20050;-74
2023/07/01 08:52:42;;;;;;;28.95;27.02;;;21.20;99.90;;;;;;4994767;28;20046;-75
2023/07/01 08:55:09;;;;;;;27.98;25.98;;;21.20;99.90;;;;;;4996127;28;20098;-75
2023/07/01 08:57:40;;;;;;;30.63;28.33;;;21.20;99.90;;;;;;4995467;28;20042;-74
2023/07/01 09:00:07;;;;;;;31.83;29.73;;;21.20;99.90;;;;;;5010040;28;20042;-75
2023/07/01 09:02:33;;;;;;;34.85;32.40;;;21.10;99.90;;;;;;4995500;28;20026;-74
2023/07/01 09:04:59;;;;;;;31.90;29.42;;;21.10;99.90;;;;;;5010939;28;20574;-74
2023/07/01 09:07:26;;;;;;;35.15;32.75;;;21.00;99.90;;;;;;5010479;28;20023;-74
2023/07/01 09:09:52;;;;;;;29.17;26.83;;;20.90;99.90;;;;;;4995796;28;20050;-73
2023/07/01 09:12:18;;;;;;;31.27;28.55;;;21.00;99.90;;;;;;5010286;28;20026;-74
2023/07/01 09:14:59;;;;;;;36.28;33.55;;;21.00;99.90;;;;;;4995760;28;20042;-74
2023/07/01 09:17:27;;;;;;;34.83;31.73;;;21.00;99.90;;;;;;4994797;28;20035;-74
2023/07/01 09:19:53;;;;;;;34.78;31.52;;;20.80;99.90;;;;;;4995278;28;20046;-74
2023/07/01 09:22:19;;;;;;;35.45;32.45;;;20.70;99.90;;;;;;4995285;28;20042;-74
2023/07/01 09:24:45;;;;;;;38.53;34.67;;;20.60;99.90;;;;;;4995479;28;20030;-74
2023/07/01 09:27:11;;;;;;;40.22;36.40;;;20.70;99.90;;;;;;4994991;28;20031;-74
2023/07/01 09:29:40;;;;;;;43.10;39.22;;;20.60;99.90;;;;;;4995429;28;20033;-74
2023/07/01 09:32:06;;;;;;;38.72;34.97;;;20.70;99.90;;;;;;4994561;28;20518;-75
2023/07/01 09:34:58;;;;;;;40.47;36.47;;;20.80;99.90;;;;;;4998335;28;20038;-74
2023/07/01 09:37:25;;;;;;;38.63;34.90;;;20.80;99.90;;;;;;4994546;28;20026;-75
2023/07/01 09:39:51;;;;;;;40.33;36.38;;;20.80;99.90;;;;;;4994852;28;20039;-75
2023/07/01 09:42:18;;;;;;;40.70;36.83;;;20.90;99.90;;;;;;4994776;28;20037;-74
2023/07/01 09:45:06;;;;;;;42.75;38.70;;;21.00;99.90;;;;;;4995159;28;20030;-75
2023/07/01 09:47:33;;;;;;;37.70;33.95;;;21.20;99.90;;;;;;5013516;28;20045;-75
2023/07/01 09:50:00;;;;;;;46.92;42.83;;;21.20;99.90;;;;;;5014605;28;20046;-74
2023/07/01 09:52:33;;;;;;;45.63;41.75;;;21.30;99.90;;;;;;5013743;28;20109;-74
2023/07/01 09:55:00;;;;;;;47.13;42.80;;;21.40;99.90;;;;;;5014181;28;20030;-74
2023/07/01 09:57:26;;;;;;;47.10;43.22;;;21.50;99.90;;;;;;5014445;28;20064;-74
2023/07/01 09:59:53;;;;;;;48.05;43.60;;;21.70;99.90;;;;;;5013110;28;20202;-74
2023/07/01 10:02:19;;;;;;;48.72;44.25;;;21.80;99.90;;;;;;5012502;28;20037;-74
2023/07/01 10:04:45;;;;;;;48.72;44.45;;;21.80;99.90;;;;;;5013119;28;20041;-74
2023/07/01 10:07:11;;;;;;;45.25;41.47;;;21.80;99.90;;;;;;5020384;28;20382;-75
2023/07/01 10:09:45;;;;;;;45.17;41.13;;;21.90;99.90;;;;;;5033675;28;20041;-74
2023/07/01 10:12:11;;;;;;;40.63;36.83;;;22.00;99.90;;;;;;5015795;28;20391;-74
2023/07/01 10:14:38;;;;;;;44.63;40.58;;;22.10;99.90;;;;;;5012953;28;20030;-73
2023/07/01 10:17:04;;;;;;;41.00;37.08;;;22.10;99.90;;;;;;4995465;28;20042;-73
2023/07/01 10:19:32;;;;;;;45.00;40.90;;;22.20;99.90;;;;;;5008742;28;20053;-74
2023/07/01 10:22:22;;;;;;;40.78;37.08;;;22.20;99.90;;;;;;4993998;28;20039;-74
2023/07/01 10:24:54;;;;;;;38.75;35.17;;;22.10;99.90;;;;;;4993904;28;20399;-74
2023/07/01 10:27:42;;;;;;;37.60;33.92;;;22.00;99.90;;;;;;4993865;28;20057;-75
2023/07/01 10:30:09;;;;;;;35.83;32.42;;;21.90;99.90;;;;;;4993763;28;20034;-75
2023/07/01 10:32:35;;;;;;;42.28;37.95;;;22.00;99.90;;;;;;4994172;28;20034;-74
2023/07/01 10:35:04;;;;;;;40.92;37.22;;;22.00;99.90;;;;;;4993832;28;20041;-75
2023/07/01 10:37:31;;;;;;;39.90;35.97;;;22.20;99.90;;;;;;4993735;28;20042;-74
2023/07/01 10:39:58;;;;;;;40.67;37.05;;;22.30;99.90;;;;;;4993655;28;20415;-74
2023/07/01 10:42:31;;;;;;;39.75;36.17;;;22.40;99.90;;;;;;4993744;28;20033;-74
2023/07/01 10:45:12;;;;;;;40.97;36.80;;;22.50;99.90;;;;;;4993932;28;20026;-74
2023/07/01 10:47:43;;;;;;;42.05;38.10;;;22.50;99.90;;;;;;5011846;28;20037;-74
2023/07/01 10:50:15;;;;;;;40.65;36.78;;;22.70;99.90;;;;;;5013458;28;20042;-75
2023/07/01 10:52:59;;;;;;;41.60;37.83;;;22.80;99.90;;;;;;4993691;28;20384;-75
2023/07/01 10:55:44;;;;;;;42.67;39.03;;;22.90;99.90;;;;;;4995671;28;20046;-74
2023/07/01 10:58:23;;;;;;;42.85;38.80;;;22.90;99.90;;;;;;5013397;28;20049;-75
2023/07/01 11:00:53;;;;;;;44.45;40.45;;;22.80;99.90;;;;;;5012540;28;20045;-75
2023/07/01 11:03:35;;;;;;;42.95;38.90;;;22.80;99.90;;;;;;5012300;28;20486;-74
2023/07/01 11:06:10;;;;;;;38.00;34.60;;;22.80;99.90;;;;;;5013418;28;20045;-75
2023/07/01 11:08:47;;;;;;;40.70;36.70;;;22.90;99.90;;;;;;5030804;28;20036;-74
2023/07/01 11:11:27;;;;;;;37.15;33.47;;;23.10;99.90;;;;;;5023994;28;20061;-74
2023/07/01 11:14:04;;;;;;;38.42;34.78;;;23.30;99.90;;;;;;5013187;28;20033;-74
2023/07/01 11:16:30;;;;;;;36.05;32.55;;;23.40;99.90;;;;;;5012781;28;20110;-74
2023/07/01 11:18:58;;;;;;;43.10;35.90;;;23.40;99.90;;;;;;5012865;28;20034;-74
2023/07/01 11:21:26;;;;;;;42.35;38.08;;;23.40;99.90;;;;;;5012309;28;20050;-75
2023/07/01 11:23:53;;;;;;;36.92;33.03;;;23.40;99.90;;;;;;5012997;28;20490;-73
2023/07/01 11:26:21;;;;;;;39.80;33.17;;;23.40;99.90;;;;;;5011738;28;20041;-74
2023/07/01 11:28:47;;;;;;;42.65;38.38;;;23.30;99.90;;;;;;5013190;28;20415;-74
2023/07/01 11:31:24;;;;;;;41.30;37.42;;;23.30;99.90;;;;;;5012392;28;20033;-74
2023/07/01 11:33:51;;;;;;;44.70;40.45;;;23.40;99.90;;;;;;5013085;28;20045;-74
2023/07/01 11:36:19;;;;;;;43.17;39.10;;;23.60;99.90;;;;;;5012026;28;20037;-74
2023/07/01 11:38:46;;;;;;;40.40;36.30;;;23.90;99.90;;;;;;5013162;28;20060;-74
2023/07/01 11:41:15;;;;;;;40.67;36.67;;;24.00;99.90;;;;;;5012468;28;20502;-73
2023/07/01 11:43:41;;;;;;;42.42;38.22;;;24.20;99.90;;;;;;5011669;28;20018;-75
2023/07/01 11:46:09;;;;;;;44.72;40.42;;;24.30;99.90;;;;;;5012296;28;20045;-74
2023/07/01 11:48:35;;;;;;;37.60;33.67;;;24.30;99.90;;;;;;5011101;28;20037;-74
2023/07/01 11:51:01;;;;;;;35.78;30.30;;;24.30;99.90;;;;;;5012376;28;20475;-74
2023/07/01 11:53:27;;;;;;;37.72;33.67;;;24.00;99.90;;;;;;5012530;28;20026;-74
2023/07/01 11:55:56;;;;;;;37.35;31.45;;;24.00;99.90;;;;;;5012881;28;20042;-74
2023/07/01 11:58:32;;;;;;;42.75;38.35;;;23.80;99.90;;;;;;5012784;28;20026;-74
2023/07/01 12:00:59;;;;;;;39.90;35.97;;;23.80;99.90;;;;;;5016159;28;20038;-74
2023/07/01 12:03:30;;;;;;;39.90;36.03;;;23.80;99.90;;;;;;5015363;28;20049;-74
2023/07/01 12:05:56;;;;;;;44.03;39.60;;;23.90;99.90;;;;;;5016016;28;20026;-75
2023/07/01 12:08:22;;;;;;;43.15;38.70;;;24.00;99.90;;;;;;5032681;28;20037;-74
2023/07/01 12:10:49;;;;;;;43.35;37.00;;;24.20;99.90;;;;;;5030589;28;20033;-74
2023/07/01 12:13:29;;;;;;;41.58;37.53;;;24.30;99.90;;;;;;5016315;28;20026;-74
2023/07/01 12:15:56;;;;;;;42.33;37.97;;;24.40;99.90;;;;;;5015749;28;20045;-74
2023/07/01 12:18:22;;;;;;;41.20;37.15;;;24.50;99.90;;;;;;5016716;28;20464;-74
2023/07/01 12:20:48;;;;;;;43.47;39.47;;;24.60;99.90;;;;;;5015758;28;20037;-75
2023/07/01 12:23:14;;;;;;;42.00;37.20;;;24.60;99.90;;;;;;5016618;28;20049;-74
2023/07/01 12:25:40;;;;;;;36.85;32.95;;;24.60;99.90;;;;;;5016067;28;20033;-75
2023/07/01 12:28:06;;;;;;;39.30;35.30;;;24.60;99.90;;;;;;5016646;28;20443;-74
2023/07/01 12:30:33;;;;;;;42.72;38.55;;;24.60;99.90;;;;;;5011208;28;20033;-74
2023/07/01 12:32:59;;;;;;;36.75;31.73;;;24.60;99.90;;;;;;4996440;28;20026;-74
2023/07/01 12:35:25;;;;;;;36.88;32.92;;;24.70;99.90;;;;;;4995553;28;20038;-74
2023/07/01 12:37:51;;;;;;;37.95;34.15;;;24.90;99.90;;;;;;4996333;28;20042;-74